Time;durP1;ratioP1;P1;durP2;ratioP2;P2;SDS_P1;SDS_P2;PMS_P1;PMS_P2;Temp;Humidity;BMP_temperature;BMP_pressure;BME280_temperature;BME280_humidity;BME280_pressure;Samples;Min_cycle;Max_cycle;Signal;HPM_P1;HPM_P2
2024/01/11 00:01:48;;;;;;;49.28;30.17;;;-3.00;67.00;;;;;;5096428;28;20398;-73
2024/01/11 00:04:14;;;;;;;49.45;30.23;;;-3.00;67.10;;;;;;5096501;28;20413;-72
2024/01/11 00:06:42;;;;;;;48.93;30.53;;;-3.00;68.00;;;;;;5096231;28;20400;-72
2024/01/11 00:09:08;;;;;;;52.57;31.80;;;-3.00;68.70;;;;;;5103103;28;20497;-72
2024/01/11 00:11:33;;;;;;;54.63;31.60;;;-2.90;69.60;;;;;;5094058;28;20408;-73
2024/01/11 00:13:59;;;;;;;56.60;32.60;;;-3.00;70.30;;;;;;5098904;28;20395;-73
2024/01/11 00:16:24;;;;;;;51.22;31.20;;;-3.00;70.70;;;;;;5097678;28;20459;-72
2024/01/11 00:18:50;;;;;;;54.33;31.90;;;-3.00;70.90;;;;;;5102076;28;20400;-72
2024/01/11 00:21:16;;;;;;;54.53;32.67;;;-3.00;71.10;;;;;;5105687;28;20388;-72
2024/01/11 00:23:41;;;;;;;54.47;32.17;;;-3.00;72.30;;;;;;5102616;28;20391;-72
2024/01/11 00:26:07;;;;;;;52.93;31.33;;;-3.00;72.30;;;;;;5105291;28;20392;-72
2024/01/11 00:28:32;;;;;;;56.53;33.03;;;-3.00;72.60;;;;;;5101631;28;20933;-72
2024/01/11 00:30:58;;;;;;;58.72;32.10;;;-3.00;73.60;;;;;;5104688;28;20435;-72
2024/01/11 00:33:23;;;;;;;55.03;32.00;;;-3.00;73.60;;;;;;5097962;28;20760;-72
2024/01/11 00:35:49;;;;;;;54.30;32.77;;;-3.00;74.00;;;;;;5094579;28;20408;-72
2024/01/11 00:38:15;;;;;;;51.35;30.45;;;-3.00;74.60;;;;;;5099321;28;20824;-72
2024/01/11 00:40:40;;;;;;;54.00;31.57;;;-3.00;74.80;;;;;;5105234;28;20469;-72
2024/01/11 00:43:06;;;;;;;51.03;30.67;;;-2.90;75.40;;;;;;5093420;28;20895;-72
2024/01/11 00:45:31;;;;;;;52.20;30.42;;;-2.90;76.00;;;;;;5108084;28;20388;-72
2024/01/11 00:47:57;;;;;;;49.20;28.97;;;-2.90;75.80;;;;;;5102920;28;20430;-72
2024/01/11 00:50:22;;;;;;;48.00;29.07;;;-2.90;75.60;;;;;;5105843;28;20388;-72
2024/01/11 00:52:48;;;;;;;52.10;30.90;;;-2.90;76.50;;;;;;5101644;28;20402;-72
2024/01/11 00:55:16;;;;;;;51.28;30.38;;;-2.90;76.80;;;;;;5106254;28;20396;-72
2024/01/11 00:57:41;;;;;;;50.17;29.90;;;-2.90;76.80;;;;;;5100918;28;20398;-72
2024/01/11 01:00:08;;;;;;;51.50;29.77;;;-2.90;78.10;;;;;;5105653;28;20465;-72
2024/01/11 01:02:33;;;;;;;54.20;30.90;;;-2.90;78.50;;;;;;5089404;28;20433;-73
2024/01/11 01:04:59;;;;;;;51.03;29.70;;;-2.80;78.90;;;;;;5089357;28;20904;-72
2024/01/11 01:07:24;;;;;;;48.40;28.92;;;-2.80;79.00;;;;;;5102729;28;20532;-72
2024/01/11 01:09:50;;;;;;;50.47;29.77;;;-2.80;78.70;;;;;;5107847;28;20810;-72
2024/01/11 01:12:16;;;;;;;48.83;28.53;;;-2.80;79.70;;;;;;5092519;28;20447;-72
2024/01/11 01:14:41;;;;;;;52.53;28.43;;;-2.80;79.40;;;;;;5107740;28;20444;-72
2024/01/11 01:17:07;;;;;;;50.40;28.73;;;-2.80;78.80;;;;;;5104267;28;20495;-72
2024/01/11 01:19:33;;;;;;;50.07;28.83;;;-2.80;78.80;;;;;;5107076;28;20482;-72
2024/01/11 01:21:58;;;;;;;48.25;28.58;;;-2.80;78.50;;;;;;5092331;28;20401;-72
2024/01/11 01:24:24;;;;;;;47.47;28.07;;;-2.80;77.80;;;;;;5106389;28;20404;-72
2024/01/11 01:26:50;;;;;;;47.97;28.37;;;-2.80;77.50;;;;;;5085724;28;20468;-73
2024/01/11 01:29:16;;;;;;;48.40;28.10;;;-2.80;77.20;;;;;;5105619;28;20461;-72
2024/01/11 01:31:41;;;;;;;47.60;27.55;;;-2.90;77.00;;;;;;5102587;28;20409;-72
2024/01/11 01:34:07;;;;;;;43.60;26.50;;;-2.90;76.60;;;;;;5105809;28;20407;-72
2024/01/11 01:36:33;;;;;;;48.45;27.98;;;-2.90;76.20;;;;;;5102343;28;20417;-72
2024/01/11 01:38:58;;;;;;;48.33;28.43;;;-2.90;76.00;;;;;;5106868;28;20977;-72
2024/01/11 01:41:24;;;;;;;45.10;27.47;;;-2.90;75.70;;;;;;5102077;28;20577;-72
2024/01/11 01:43:49;;;;;;;45.60;26.88;;;-2.90;75.50;;;;;;5106002;28;20400;-72
2024/01/11 01:46:22;;;;;;;45.43;27.63;;;-3.00;75.40;;;;;;5101167;28;20425;-72
2024/01/11 01:48:48;;;;;;;45.88;26.85;;;-3.00;75.30;;;;;;5096706;28;20435;-72
2024/01/11 01:51:14;;;;;;;44.95;27.80;;;-3.00;74.80;;;;;;5089274;28;20403;-72
2024/01/11 01:53:40;;;;;;;45.88;27.15;;;-3.00;74.40;;;;;;5104086;28;20400;-73
2024/01/11 01:56:08;;;;;;;46.03;26.63;;;-3.00;74.00;;;;;;5101103;28;20401;-72
2024/01/11 01:58:34;;;;;;;47.13;27.97;;;-3.10;73.80;;;;;;5105061;28;20515;-72
2024/01/11 02:01:00;;;;;;;47.33;26.95;;;-3.10;73.50;;;;;;5098502;28;21078;-72
2024/01/11 02:03:28;;;;;;;49.60;27.90;;;-3.10;73.50;;;;;;5096300;28;20404;-72
2024/01/11 02:05:54;;;;;;;48.17;27.02;;;-3.10;73.40;;;;;;5092120;28;20403;-72
2024/01/11 02:08:23;;;;;;;49.33;27.63;;;-3.10;73.50;;;;;;5088871;28;20428;-72
2024/01/11 02:10:49;;;;;;;47.00;27.60;;;-3.20;73.70;;;;;;5102113;28;21137;-72
2024/01/11 02:13:15;;;;;;;48.10;27.55;;;-3.20;73.70;;;;;;5106789;28;20405;-72
2024/01/11 02:15:40;;;;;;;45.28;26.67;;;-3.20;73.50;;;;;;5103367;28;20392;-72
2024/01/11 02:18:06;;;;;;;47.80;27.35;;;-3.20;73.50;;;;;;5105309;28;20452;-72
2024/01/11 02:20:32;;;;;;;48.53;27.38;;;-3.20;73.50;;;;;;5101864;28;20450;-72
2024/01/11 02:23:04;;;;;;;47.95;27.08;;;-3.20;73.20;;;;;;5104453;28;20408;-72
2024/01/11 02:25:29;;;;;;;46.07;27.13;;;-3.30;73.30;;;;;;5100197;28;20394;-71
2024/01/11 02:27:55;;;;;;;48.87;26.97;;;-3.30;73.50;;;;;;5104697;28;20412;-71
2024/01/11 02:30:20;;;;;;;46.72;26.95;;;-3.30;73.50;;;;;;5098877;28;20400;-72
2024/01/11 02:32:48;;;;;;;50.53;27.53;;;-3.30;73.60;;;;;;5105068;28;20466;-72
2024/01/11 02:35:15;;;;;;;47.60;27.40;;;-3.30;73.90;;;;;;5101816;28;20397;-72
2024/01/11 02:37:41;;;;;;;48.53;26.83;;;-3.30;73.80;;;;;;5102730;28;20436;-71
2024/01/11 02:40:08;;;;;;;49.03;27.65;;;-3.30;74.30;;;;;;5090942;28;20941;-73
2024/01/11 02:42:35;;;;;;;49.70;28.02;;;-3.30;74.50;;;;;;5102325;28;20404;-71
2024/01/11 02:45:03;;;;;;;48.70;27.27;;;-3.30;74.80;;;;;;5090231;28;20411;-71
2024/01/11 02:47:28;;;;;;;49.40;27.53;;;-3.30;75.00;;;;;;5100801;28;20419;-72
2024/01/11 02:49:54;;;;;;;47.10;27.13;;;-3.30;75.20;;;;;;5097011;28;20772;-71
2024/01/11 02:52:19;;;;;;;44.83;26.30;;;-3.20;75.60;;;;;;5095779;28;20487;-71
2024/01/11 02:54:45;;;;;;;48.17;28.45;;;-3.30;76.00;;;;;;5098556;28;20420;-72
2024/01/11 02:57:11;;;;;;;48.43;27.20;;;-3.20;76.20;;;;;;5093046;28;20395;-71
2024/01/11 02:59:36;;;;;;;46.43;26.83;;;-3.20;76.50;;;;;;5088574;28;20437;-71
2024/01/11 03:02:02;;;;;;;46.38;27.33;;;-3.10;76.50;;;;;;5094369;28;20412;-71
2024/01/11 03:04:28;;;;;;;46.83;27.85;;;-3.10;76.70;;;;;;5087760;28;20895;-72
2024/01/11 03:06:53;;;;;;;46.40;27.23;;;-3.10;76.90;;;;;;5098697;28;20432;-71
2024/01/11 03:09:19;;;;;;;48.57;27.10;;;-3.00;77.30;;;;;;5103369;28;20432;-71
2024/01/11 03:11:45;;;;;;;50.97;28.35;;;-3.00;77.60;;;;;;5103803;28;20404;-71
2024/01/11 03:14:10;;;;;;;48.78;28.67;;;-3.00;77.40;;;;;;5101415;28;20407;-71
2024/01/11 03:16:37;;;;;;;50.00;28.27;;;-2.90;77.50;;;;;;5105117;28;20399;-72
2024/01/11 03:19:03;;;;;;;52.97;28.75;;;-2.90;77.60;;;;;;5095468;28;20414;-71
2024/01/11 03:21:28;;;;;;;52.67;29.17;;;-2.80;77.50;;;;;;5087695;28;20563;-72
2024/01/11 03:23:54;;;;;;;48.92;28.50;;;-2.80;77.30;;;;;;5092162;28;20404;-71
2024/01/11 03:26:20;;;;;;;52.08;29.02;;;-2.80;77.30;;;;;;5104693;28;20408;-71
2024/01/11 03:28:45;;;;;;;53.17;29.00;;;-2.80;77.60;;;;;;5101866;28;20764;-71
2024/01/11 03:31:11;;;;;;;50.07;29.03;;;-2.80;77.90;;;;;;5102808;28;20407;-71
2024/01/11 03:33:36;;;;;;;50.40;28.35;;;-2.70;78.10;;;;;;5099207;28;20407;-71
2024/01/11 03:36:12;;;;;;;54.43;29.03;;;-2.70;78.10;;;;;;5104443;28;20396;-71
2024/01/11 03:38:38;;;;;;;48.92;28.77;;;-2.70;78.20;;;;;;5101715;28;20491;-71
2024/01/11 03:41:10;;;;;;;49.83;28.63;;;-2.70;78.30;;;;;;5103201;28;20397;-70
2024/01/11 03:43:36;;;;;;;51.78;29.33;;;-2.60;78.60;;;;;;5104808;28;20400;-71
2024/01/11 03:46:02;;;;;;;51.20;28.80;;;-2.60;78.50;;;;;;5083828;28;20441;-71
2024/01/11 03:48:28;;;;;;;51.45;29.27;;;-2.60;78.20;;;;;;5104495;28;20503;-71
2024/01/11 03:50:54;;;;;;;51.95;28.92;;;-2.60;78.70;;;;;;5102181;28;20998;-71
2024/01/11 03:53:20;;;;;;;51.38;29.35;;;-2.50;79.00;;;;;;5102577;28;20392;-71
2024/01/11 03:55:45;;;;;;;54.17;30.13;;;-2.50;79.10;;;;;;5101789;28;20414;-71
2024/01/11 03:58:11;;;;;;;50.30;29.27;;;-2.50;79.90;;;;;;5103392;28;20483;-71
2024/01/11 04:00:36;;;;;;;51.83;29.80;;;-2.40;79.10;;;;;;5076795;28;20810;-71
2024/01/11 04:03:02;;;;;;;52.00;29.17;;;-2.40;78.80;;;;;;5086180;28;20405;-71
2024/01/11 04:05:28;;;;;;;53.85;29.27;;;-2.40;78.70;;;;;;5088375;28;20398;-70
2024/01/11 04:07:53;;;;;;;54.57;28.80;;;-2.40;79.10;;;;;;5097856;28;20821;-71
2024/01/11 04:10:19;;;;;;;54.10;29.60;;;-2.40;79.10;;;;;;5091713;28;20533;-71
2024/01/11 04:12:45;;;;;;;53.25;30.50;;;-2.30;79.40;;;;;;5100706;28;20396;-71
2024/01/11 04:15:13;;;;;;;52.83;29.97;;;-2.30;79.70;;;;;;5105862;28;21148;-72
2024/01/11 04:17:40;;;;;;;51.13;28.83;;;-2.30;79.80;;;;;;5100994;28;20408;-71
2024/01/11 04:20:08;;;;;;;49.63;29.13;;;-2.30;79.70;;;;;;5086560;28;20396;-71
2024/01/11 04:22:34;;;;;;;52.60;28.70;;;-2.20;79.90;;;;;;5105558;28;20409;-71
2024/01/11 04:25:00;;;;;;;49.25;28.83;;;-2.20;79.90;;;;;;5107784;28;20396;-71
2024/01/11 04:27:26;;;;;;;49.10;28.73;;;-2.20;79.70;;;;;;5104626;28;20749;-71
2024/01/11 04:29:51;;;;;;;50.50;29.20;;;-2.10;79.90;;;;;;5106001;28;20431;-71
2024/01/11 04:32:17;;;;;;;51.67;29.25;;;-2.10;80.00;;;;;;5102038;28;20433;-71
2024/01/11 04:34:43;;;;;;;51.25;29.75;;;-2.10;80.20;;;;;;5103478;28;20454;-71
2024/01/11 04:37:09;;;;;;;53.38;29.40;;;-2.00;80.30;;;;;;5095120;28;20431;-71
2024/01/11 04:39:35;;;;;;;50.13;28.73;;;-2.00;80.30;;;;;;5105446;28;20400;-71
2024/01/11 04:42:00;;;;;;;49.87;28.47;;;-2.00;80.40;;;;;;5108399;28;20977;-72
2024/01/11 04:44:26;;;;;;;51.07;29.10;;;-1.90;80.60;;;;;;5104421;28;20407;-72
2024/01/11 04:46:52;;;;;;;51.87;29.83;;;-1.90;80.50;;;;;;5085884;28;20487;-72
2024/01/11 04:49:17;;;;;;;52.45;29.92;;;-1.90;80.60;;;;;;5094140;28;20436;-72
2024/01/11 04:51:43;;;;;;;50.67;29.20;;;-1.90;80.60;;;;;;5107944;28;20404;-72
2024/01/11 04:54:08;;;;;;;54.40;29.60;;;-1.90;80.30;;;;;;5104805;28;20409;-72
2024/01/11 04:56:34;;;;;;;51.72;28.65;;;-1.80;80.50;;;;;;5108001;28;20403;-72
2024/01/11 04:59:00;;;;;;;53.17;29.23;;;-1.80;80.70;;;;;;5104304;28;20478;-72
2024/01/11 05:01:25;;;;;;;51.33;29.60;;;-1.80;80.90;;;;;;5107347;28;20470;-72
2024/01/11 05:03:51;;;;;;;53.72;30.35;;;-1.70;81.00;;;;;;5105153;28;20400;-72
2024/01/11 05:06:21;;;;;;;52.00;29.58;;;-1.80;81.10;;;;;;5088582;28;20408;-72
2024/01/11 05:08:49;;;;;;;55.28;33.20;;;-1.70;81.20;;;;;;5103600;28;20425;-72
2024/01/11 05:11:19;;;;;;;54.90;30.75;;;-1.70;81.30;;;;;;5096183;28;21003;-72
2024/01/11 05:13:47;;;;;;;52.75;30.35;;;-1.70;81.40;;;;;;5102972;28;21350;-72
2024/01/11 05:16:20;;;;;;;53.30;30.23;;;-1.60;81.50;;;;;;5087156;28;20962;-72
2024/01/11 05:18:45;;;;;;;65.97;34.95;;;-1.70;81.80;;;;;;5104750;28;20414;-72
2024/01/11 05:21:11;;;;;;;65.10;34.27;;;-1.60;82.20;;;;;;5107140;28;20396;-72
2024/01/11 05:23:37;;;;;;;63.23;33.53;;;-1.60;82.30;;;;;;5103906;28;20394;-72
2024/01/11 05:26:02;;;;;;;64.97;34.97;;;-1.60;82.30;;;;;;5104791;28;20434;-72
2024/01/11 05:28:28;;;;;;;60.47;32.97;;;-1.60;82.40;;;;;;5103404;28;20519;-72
2024/01/11 05:30:54;;;;;;;56.78;32.03;;;-1.50;82.60;;;;;;5106394;28;20431;-72
2024/01/11 05:33:20;;;;;;;57.75;31.30;;;-1.50;82.80;;;;;;5103382;28;20409;-72
2024/01/11 05:35:46;;;;;;;58.92;32.28;;;-1.50;82.80;;;;;;5106468;28;20400;-72
2024/01/11 05:38:11;;;;;;;55.40;31.23;;;-1.50;83.20;;;;;;5103077;28;20705;-72
2024/01/11 05:40:37;;;;;;;57.90;32.20;;;-1.50;83.50;;;;;;5105485;28;20894;-72
2024/01/11 05:43:03;;;;;;;58.77;32.47;;;-1.40;83.50;;;;;;5103720;28;20402;-72
2024/01/11 05:45:29;;;;;;;56.72;32.05;;;-1.40;83.90;;;;;;5107239;28;20445;-72
2024/01/11 05:47:54;;;;;;;60.33;32.83;;;-1.40;84.00;;;;;;5103825;28;21230;-72
2024/01/11 05:50:20;;;;;;;58.60;32.23;;;-1.40;84.10;;;;;;5106936;28;20400;-72
2024/01/11 05:52:46;;;;;;;56.25;31.75;;;-1.40;84.00;;;;;;5101782;27;20919;-72
2024/01/11 05:55:11;;;;;;;59.97;32.28;;;-1.40;84.30;;;;;;5106866;28;20400;-72
2024/01/11 05:57:37;;;;;;;59.60;32.73;;;-1.40;84.60;;;;;;5092748;28;20398;-72
2024/01/11 06:00:04;;;;;;;59.10;32.17;;;-1.30;84.90;;;;;;5106304;28;20396;-72
2024/01/11 06:02:31;;;;;;;57.65;32.30;;;-1.30;84.90;;;;;;5103012;28;20402;-72
2024/01/11 06:04:57;;;;;;;58.22;31.60;;;-1.30;85.10;;;;;;5106983;28;20400;-72
2024/01/11 06:07:23;;;;;;;59.45;32.25;;;-1.30;85.30;;;;;;5103278;28;21114;-72
2024/01/11 06:09:49;;;;;;;59.33;31.67;;;-1.20;85.60;;;;;;5080311;28;20465;-72
2024/01/11 06:12:15;;;;;;;60.33;31.63;;;-1.20;85.30;;;;;;5087352;28;20434;-72
2024/01/11 06:14:40;;;;;;;57.42;31.10;;;-1.20;85.80;;;;;;5089244;28;20443;-72
2024/01/11 06:17:06;;;;;;;58.13;32.22;;;-1.20;85.60;;;;;;5088695;28;20803;-72
2024/01/11 06:19:32;;;;;;;57.63;31.30;;;-1.20;85.90;;;;;;5088099;28;20493;-72
2024/01/11 06:21:58;;;;;;;60.83;32.45;;;-1.20;86.20;;;;;;5087120;28;20401;-71
2024/01/11 06:24:23;;;;;;;60.80;32.50;;;-1.20;86.50;;;;;;5088379;28;20402;-72
2024/01/11 06:26:49;;;;;;;57.57;30.67;;;-1.20;86.20;;;;;;5087199;28;20452;-71
2024/01/11 06:29:15;;;;;;;62.43;33.23;;;-1.10;86.20;;;;;;5085850;28;20439;-71
2024/01/11 06:31:41;;;;;;;60.83;32.25;;;-1.10;86.50;;;;;;5084670;28;20418;-72
2024/01/11 06:34:06;;;;;;;60.35;33.55;;;-1.10;86.50;;;;;;5088028;28;20412;-72
2024/01/11 06:36:32;;;;;;;60.05;31.55;;;-1.10;86.70;;;;;;5088499;28;20767;-72
2024/01/11 06:38:57;;;;;;;63.03;32.73;;;-1.10;87.00;;;;;;5088679;28;20406;-72
2024/01/11 06:41:24;;;;;;;61.80;32.73;;;-1.10;87.40;;;;;;5075223;28;21016;-72
2024/01/11 06:43:49;;;;;;;58.70;32.22;;;-1.10;87.90;;;;;;5086924;28;20810;-72
2024/01/11 06:46:20;;;;;;;59.77;31.93;;;-1.00;88.10;;;;;;5086623;28;20534;-72
2024/01/11 06:48:45;;;;;;;61.72;31.88;;;-1.00;88.40;;;;;;5088190;28;21001;-72
2024/01/11 06:51:20;;;;;;;59.17;30.73;;;-1.00;88.80;;;;;;5087091;28;20497;-72
2024/01/11 06:53:46;;;;;;;59.55;31.77;;;-0.90;89.10;;;;;;5088498;28;20475;-72
2024/01/11 06:56:19;;;;;;;61.10;31.98;;;-0.90;89.20;;;;;;5087797;28;20406;-72
2024/01/11 06:58:45;;;;;;;61.37;31.23;;;-0.90;89.30;;;;;;5088194;28;20402;-72
2024/01/11 07:01:11;;;;;;;58.95;31.70;;;-0.90;89.60;;;;;;5070660;28;20410;-72
2024/01/11 07:03:38;;;;;;;60.70;31.27;;;-0.90;89.90;;;;;;5088718;28;20409;-72
2024/01/11 07:06:04;;;;;;;59.75;31.35;;;-0.90;89.60;;;;;;5069789;28;20481;-72
2024/01/11 07:08:30;;;;;;;62.25;32.05;;;-0.80;89.80;;;;;;5088049;28;20513;-72
2024/01/11 07:10:56;;;;;;;62.78;31.42;;;-0.80;90.00;;;;;;5089460;28;20427;-72
2024/01/11 07:13:22;;;;;;;60.78;31.48;;;-0.80;90.10;;;;;;5106047;28;20400;-74
2024/01/11 07:15:48;;;;;;;60.47;31.63;;;-0.80;90.30;;;;;;5101787;28;20430;-72
2024/01/11 07:18:14;;;;;;;60.20;30.88;;;-0.70;90.40;;;;;;5105640;28;20422;-72
2024/01/11 07:20:40;;;;;;;59.85;29.80;;;-0.70;90.40;;;;;;5102663;28;20409;-72
2024/01/11 07:23:06;;;;;;;59.22;29.98;;;-0.70;90.50;;;;;;5094590;28;20390;-72
2024/01/11 07:25:32;;;;;;;62.53;30.45;;;-0.70;90.70;;;;;;5102463;28;20427;-72
2024/01/11 07:27:58;;;;;;;61.25;29.48;;;-0.70;90.80;;;;;;5104089;28;22379;-72
2024/01/11 07:30:24;;;;;;;58.50;29.73;;;-0.70;90.90;;;;;;5101171;28;20404;-72
2024/01/11 07:32:49;;;;;;;60.97;29.80;;;-0.60;90.90;;;;;;5105150;28;20398;-72
2024/01/11 07:35:15;;;;;;;62.20;30.65;;;-0.60;91.10;;;;;;5102319;28;20804;-72
2024/01/11 07:37:41;;;;;;;58.00;29.70;;;-0.60;91.00;;;;;;5105194;28;20428;-72
2024/01/11 07:40:10;;;;;;;60.83;29.83;;;-0.60;91.10;;;;;;5102741;28;20388;-72
2024/01/11 07:42:39;;;;;;;60.60;29.83;;;-0.60;91.00;;;;;;5104621;28;20415;-72
2024/01/11 07:45:05;;;;;;;57.20;28.23;;;-0.50;91.10;;;;;;5099104;28;20439;-72
2024/01/11 07:47:31;;;;;;;58.88;28.95;;;-0.50;91.30;;;;;;5103589;28;20393;-72
2024/01/11 07:49:57;;;;;;;58.53;28.95;;;-0.50;91.50;;;;;;5104314;28;20941;-72
2024/01/11 07:52:22;;;;;;;57.58;28.35;;;-0.50;91.60;;;;;;5108081;28;20811;-72
2024/01/11 07:54:48;;;;;;;59.67;28.38;;;-0.50;91.40;;;;;;5106929;28;20408;-72
2024/01/11 07:57:14;;;;;;;58.40;29.17;;;-0.40;91.50;;;;;;5106688;28;20415;-72
2024/01/11 07:59:39;;;;;;;58.33;28.70;;;-0.40;91.70;;;;;;5106164;28;20430;-72
2024/01/11 08:02:06;;;;;;;59.10;29.00;;;-0.40;91.90;;;;;;5106255;28;20419;-72
2024/01/11 08:04:32;;;;;;;60.80;32.23;;;-0.40;91.60;;;;;;5101461;28;20573;-72
2024/01/11 08:07:01;;;;;;;59.43;30.30;;;-0.30;91.80;;;;;;5101419;28;21175;-72
2024/01/11 08:09:28;;;;;;;61.60;32.35;;;-0.40;91.70;;;;;;5101804;28;20425;-72
2024/01/11 08:11:54;;;;;;;53.20;27.13;;;-0.30;91.90;;;;;;5091192;28;20556;-72
2024/01/11 08:14:20;;;;;;;60.78;29.33;;;-0.30;92.00;;;;;;5107389;28;20662;-72
2024/01/11 08:16:46;;;;;;;63.72;30.67;;;-0.30;92.10;;;;;;5107794;28;20396;-72
2024/01/11 08:19:14;;;;;;;58.83;28.95;;;-0.30;92.30;;;;;;5105647;28;20449;-72
2024/01/11 08:21:41;;;;;;;54.13;27.92;;;-0.30;92.50;;;;;;5107182;28;20404;-72
2024/01/11 08:24:07;;;;;;;52.63;27.15;;;-0.20;92.60;;;;;;5105355;28;20410;-72
2024/01/11 08:26:33;;;;;;;52.25;27.13;;;-0.20;92.60;;;;;;5106622;28;20441;-72
2024/01/11 08:28:59;;;;;;;52.60;27.57;;;-0.20;92.80;;;;;;5105092;28;20419;-72
2024/01/11 08:31:25;;;;;;;54.13;26.93;;;-0.10;92.90;;;;;;5107076;28;20410;-72
2024/01/11 08:33:50;;;;;;;50.40;27.40;;;-0.10;93.10;;;;;;5106904;28;20401;-72
2024/01/11 08:36:16;;;;;;;53.80;27.23;;;-0.10;93.20;;;;;;5106927;28;20494;-72
2024/01/11 08:38:42;;;;;;;51.72;26.33;;;-0.10;93.20;;;;;;5106273;28;20394;-72
2024/01/11 08:41:08;;;;;;;51.13;26.45;;;0.00;93.30;;;;;;5090776;28;20409;-72
2024/01/11 08:43:34;;;;;;;47.75;25.98;;;0.00;93.40;;;;;;5106486;28;20449;-72
2024/01/11 08:45:59;;;;;;;51.43;26.57;;;0.00;93.30;;;;;;5106152;28;20459;-72
2024/01/11 08:48:25;;;;;;;49.40;26.77;;;0.00;93.40;;;;;;5106450;28;20420;-72
2024/01/11 08:50:51;;;;;;;48.55;27.25;;;0.10;93.30;;;;;;5095110;28;20926;-72
2024/01/11 08:53:17;;;;;;;50.33;26.33;;;0.10;93.30;;;;;;5105909;28;20479;-72
2024/01/11 08:55:43;;;;;;;49.80;26.33;;;0.20;93.60;;;;;;5107144;28;20889;-72
2024/01/11 08:58:09;;;;;;;48.88;26.52;;;0.20;93.60;;;;;;5106948;28;20404;-73
2024/01/11 09:00:35;;;;;;;49.30;26.02;;;0.20;93.60;;;;;;5105953;28;20412;-72
2024/01/11 09:03:00;;;;;;;47.65;25.10;;;0.20;93.70;;;;;;5106656;28;20898;-72
2024/01/11 09:05:26;;;;;;;48.00;24.92;;;0.20;93.70;;;;;;5106039;28;20400;-72
2024/01/11 09:07:52;;;;;;;44.97;24.83;;;0.30;93.40;;;;;;5089568;28;20409;-72
2024/01/11 09:10:17;;;;;;;46.87;24.63;;;0.30;93.30;;;;;;5090353;28;21134;-72
2024/01/11 09:12:43;;;;;;;47.78;25.38;;;0.40;93.50;;;;;;5106294;28;20475;-72
2024/01/11 09:15:09;;;;;;;50.15;25.48;;;0.40;93.60;;;;;;5106609;28;20389;-72
2024/01/11 09:17:35;;;;;;;46.47;25.63;;;0.40;93.60;;;;;;5106230;28;20877;-72
2024/01/11 09:20:01;;;;;;;45.20;25.40;;;0.50;93.70;;;;;;5106826;28;20440;-72
2024/01/11 09:22:27;;;;;;;46.30;25.50;;;0.50;93.70;;;;;;5106440;28;20454;-72
2024/01/11 09:24:53;;;;;;;43.33;24.10;;;0.50;93.80;;;;;;5107219;28;20437;-72
2024/01/11 09:27:18;;;;;;;42.30;24.33;;;0.50;93.70;;;;;;5106244;28;20416;-72
2024/01/11 09:29:45;;;;;;;43.25;23.77;;;0.60;93.70;;;;;;5105455;28;20428;-72
2024/01/11 09:32:11;;;;;;;41.38;23.58;;;0.60;93.80;;;;;;5106666;28;20408;-73
2024/01/11 09:34:37;;;;;;;39.95;22.83;;;0.60;93.80;;;;;;5107022;28;20472;-73
2024/01/11 09:37:03;;;;;;;42.53;23.13;;;0.60;93.80;;;;;;5105021;28;20483;-73
2024/01/11 09:39:29;;;;;;;42.70;23.33;;;0.70;93.90;;;;;;5106219;28;20753;-72
2024/01/11 09:42:11;;;;;;;41.60;23.00;;;0.70;93.90;;;;;;5107289;28;20396;-72
2024/01/11 09:44:38;;;;;;;43.60;24.17;;;0.70;93.80;;;;;;5103339;28;20459;-72
2024/01/11 09:47:06;;;;;;;42.03;23.02;;;0.70;93.70;;;;;;5100036;27;20401;-73
2024/01/11 09:49:33;;;;;;;40.47;23.05;;;0.70;93.50;;;;;;5100799;28;20422;-73
2024/01/11 09:52:01;;;;;;;41.65;23.33;;;0.80;93.50;;;;;;5106277;28;20407;-73
2024/01/11 09:54:27;;;;;;;42.65;24.17;;;0.80;93.60;;;;;;5102102;28;20479;-73
2024/01/11 09:56:57;;;;;;;40.30;22.20;;;0.80;93.80;;;;;;5105213;28;20447;-73
2024/01/11 09:59:24;;;;;;;38.88;21.85;;;0.80;93.70;;;;;;5102815;28;20474;-73
2024/01/11 10:01:51;;;;;;;38.25;22.00;;;0.80;93.80;;;;;;5106639;28;20487;-72
2024/01/11 10:04:17;;;;;;;36.70;21.77;;;0.80;93.90;;;;;;5103181;28;20776;-72
2024/01/11 10:06:43;;;;;;;38.95;21.38;;;0.90;94.00;;;;;;5105590;28;20462;-73
2024/01/11 10:09:09;;;;;;;38.28;21.50;;;0.90;93.90;;;;;;5099570;28;20503;-72
2024/01/11 10:11:35;;;;;;;37.03;21.57;;;0.90;94.00;;;;;;5097708;28;20891;-72
2024/01/11 10:14:02;;;;;;;38.20;21.20;;;0.90;94.00;;;;;;5101715;28;20410;-73
2024/01/11 10:16:28;;;;;;;36.65;21.75;;;1.00;93.90;;;;;;5106296;28;20400;-73
2024/01/11 10:18:55;;;;;;;37.08;21.63;;;1.00;94.10;;;;;;5103679;28;20493;-73
2024/01/11 10:21:21;;;;;;;36.75;21.75;;;1.00;93.80;;;;;;5106500;28;21068;-73
2024/01/11 10:23:47;;;;;;;39.15;22.88;;;1.00;93.90;;;;;;5103583;28;20768;-73
2024/01/11 10:26:16;;;;;;;37.87;21.43;;;1.10;93.70;;;;;;5106647;28;20403;-73
2024/01/11 10:28:45;;;;;;;37.70;21.60;;;1.10;93.80;;;;;;5092371;28;21081;-73
2024/01/11 10:31:10;;;;;;;38.15;22.17;;;1.10;93.80;;;;;;5106196;28;20404;-73
2024/01/11 10:33:36;;;;;;;38.80;21.42;;;1.20;94.00;;;;;;5102250;28;20923;-73
2024/01/11 10:36:02;;;;;;;36.57;20.30;;;1.20;94.00;;;;;;5106566;28;20435;-73
2024/01/11 10:38:30;;;;;;;38.42;21.75;;;1.20;94.00;;;;;;5103477;28;20396;-73
2024/01/11 10:41:00;;;;;;;35.75;20.55;;;1.20;93.90;;;;;;5094573;28;20964;-73
2024/01/11 10:43:26;;;;;;;36.93;20.57;;;1.20;93.90;;;;;;5103621;28;20404;-73
2024/01/11 10:45:57;;;;;;;36.90;21.85;;;1.20;94.00;;;;;;5106359;28;20458;-73
2024/01/11 10:48:25;;;;;;;35.60;20.77;;;1.30;94.00;;;;;;5100858;28;20416;-73
2024/01/11 10:50:56;;;;;;;36.30;21.30;;;1.30;94.00;;;;;;5104310;28;20786;-73
2024/01/11 10:53:28;;;;;;;37.78;21.23;;;1.30;94.00;;;;;;5104114;28;20400;-73
2024/01/11 10:55:56;;;;;;;35.03;20.55;;;1.30;94.00;;;;;;5102358;28;20431;-74
2024/01/11 10:58:24;;;;;;;34.00;19.70;;;1.40;93.80;;;;;;5099017;28;20402;-73
2024/01/11 11:00:54;;;;;;;35.22;20.50;;;1.30;93.70;;;;;;5097113;28;21011;-73
2024/01/11 11:03:20;;;;;;;33.78;20.10;;;1.40;93.90;;;;;;5103180;28;20476;-73
2024/01/11 11:05:50;;;;;;;33.55;19.58;;;1.40;94.10;;;;;;5101334;28;20438;-73
2024/01/11 11:08:17;;;;;;;33.17;19.70;;;1.40;94.10;;;;;;5085869;28;20432;-73
2024/01/11 11:10:45;;;;;;;31.57;19.37;;;1.40;94.00;;;;;;5091196;28;20410;-73
2024/01/11 11:13:14;;;;;;;34.65;19.75;;;1.50;94.10;;;;;;5104590;28;20483;-73
2024/01/11 11:15:42;;;;;;;31.80;19.50;;;1.50;94.10;;;;;;5099489;28;20429;-73
2024/01/11 11:18:07;;;;;;;34.30;19.55;;;1.50;94.00;;;;;;5096966;28;20401;-73
2024/01/11 11:20:33;;;;;;;33.40;20.47;;;1.50;93.80;;;;;;5101378;28;20410;-73
2024/01/11 11:23:06;;;;;;;33.70;20.17;;;1.60;94.00;;;;;;5104400;28;20464;-73
2024/01/11 11:25:32;;;;;;;32.28;19.60;;;1.60;94.00;;;;;;5099054;28;20419;-73
2024/01/11 11:28:01;;;;;;;33.60;20.23;;;1.60;93.90;;;;;;5104290;28;20404;-73
2024/01/11 11:30:27;;;;;;;32.38;19.15;;;1.60;94.00;;;;;;5096963;28;20981;-73
2024/01/11 11:32:55;;;;;;;33.72;19.65;;;1.60;94.00;;;;;;5104392;27;20437;-73
2024/01/11 11:35:25;;;;;;;34.53;20.10;;;1.60;94.00;;;;;;5101487;28;20889;-73
2024/01/11 11:37:56;;;;;;;30.30;18.65;;;1.60;93.90;;;;;;5093276;28;20767;-73
2024/01/11 11:40:44;;;;;;;33.85;20.10;;;1.60;93.90;;;;;;5102671;28;20785;-73
2024/01/11 11:43:10;;;;;;;34.85;19.30;;;1.50;94.00;;;;;;5100423;28;20410;-73
2024/01/11 11:45:38;;;;;;;32.50;18.92;;;1.50;93.90;;;;;;5104350;28;20395;-74
2024/01/11 11:48:28;;;;;;;34.38;19.38;;;1.50;93.80;;;;;;5099883;28;20397;-73
2024/01/11 11:51:09;;;;;;;39.05;22.17;;;1.50;94.00;;;;;;5102209;28;20404;-74
2024/01/11 11:53:36;;;;;;;38.67;21.95;;;1.50;94.10;;;;;;5083941;28;21120;-73
2024/01/11 11:56:03;;;;;;;38.42;21.73;;;1.50;94.30;;;;;;5099526;28;20401;-73
2024/01/11 11:58:29;;;;;;;39.97;22.02;;;1.60;94.30;;;;;;5103896;28;20404;-73
2024/01/11 12:00:57;;;;;;;43.42;21.65;;;1.50;94.30;;;;;;5098001;28;20481;-73
2024/01/11 12:03:32;;;;;;;43.35;22.42;;;1.50;94.20;;;;;;5101786;28;20450;-73
2024/01/11 12:05:58;;;;;;;43.88;22.45;;;1.50;94.40;;;;;;5097918;28;20402;-73
2024/01/11 12:08:24;;;;;;;45.90;23.45;;;1.50;94.50;;;;;;5102238;28;20416;-73
2024/01/11 12:10:51;;;;;;;43.60;22.15;;;1.50;94.90;;;;;;5087272;28;20763;-73
2024/01/11 12:13:17;;;;;;;42.47;21.85;;;1.50;94.80;;;;;;5105453;28;20396;-73
2024/01/11 12:15:43;;;;;;;45.50;22.48;;;1.60;95.00;;;;;;5091206;28;20400;-73
2024/01/11 12:18:09;;;;;;;43.95;22.00;;;1.60;95.00;;;;;;5103614;28;20834;-73
2024/01/11 12:20:35;;;;;;;43.33;21.85;;;1.60;95.30;;;;;;5101129;28;20400;-73
2024/01/11 12:23:02;;;;;;;45.03;22.03;;;1.60;95.40;;;;;;5104622;28;20397;-73
2024/01/11 12:25:28;;;;;;;41.23;22.03;;;1.60;95.40;;;;;;5101698;28;20751;-73
2024/01/11 12:27:55;;;;;;;44.65;21.88;;;1.60;95.40;;;;;;5105294;28;20468;-73